createdAt,value
2023-04-29T00:00:07.550Z,151255.22
2023-04-29T00:02:35.762Z,151268.19
2023-04-29T00:05:05.450Z,151270.75
2023-04-29T00:07:33.834Z,151265.59
2023-04-29T00:10:03.800Z,151239.72
2023-04-29T00:12:35.717Z,151268.19
2023-04-29T00:15:04.764Z,151259.13
2023-04-29T00:17:33.740Z,151268.19
2023-04-29T00:20:02.569Z,151259.13
2023-04-29T00:22:30.864Z,151230.66
2023-04-29T00:24:58.936Z,151260.41
2023-04-29T00:27:28.380Z,151246.22
2023-04-29T00:29:56.963Z,151250.03
2023-04-29T00:32:26.837Z,151244.91
2023-04-29T00:34:54.800Z,151243.63
2023-04-29T00:37:22.708Z,151239.72
2023-04-29T00:39:50.643Z,151230.66
2023-04-29T00:42:22.282Z,151231.97
2023-04-29T00:44:51.790Z,151251.34
2023-04-29T00:47:19.731Z,151233.25
2023-04-29T00:49:47.847Z,151226.78
2023-04-29T00:52:16.518Z,151238.44
2023-04-29T00:54:47.438Z,151226.78
2023-04-29T00:57:16.172Z,151242.31
2023-04-29T00:59:45.803Z,151219.00
2023-04-29T01:02:15.172Z,151231.97
2023-04-29T01:04:43.640Z,151234.56
2023-04-29T01:07:18.513Z,151211.25
2023-04-29T01:09:55.513Z,151209.94
2023-04-29T01:12:33.788Z,151220.31
2023-04-29T01:15:06.408Z,151190.56
2023-04-29T01:17:51.668Z,151185.41
2023-04-29T01:20:22.281Z,151211.25
2023-04-29T01:22:50.434Z,151219.00
2023-04-29T01:25:20.018Z,151217.72
2023-04-29T01:27:58.047Z,151213.84
2023-04-29T01:30:34.085Z,151224.19
2023-04-29T01:33:07.783Z,151225.50
2023-04-29T01:35:56.938Z,151195.72
2023-04-29T01:38:31.721Z,151195.72
2023-04-29T01:41:11.648Z,151185.41
2023-04-29T01:43:40.545Z,151182.81
2023-04-29T01:46:11.119Z,151180.22
2023-04-29T01:48:39.540Z,151184.09
2023-04-29T01:51:07.816Z,151169.84
2023-04-29T01:53:35.636Z,151173.75
2023-04-29T01:56:05.246Z,151164.69
2023-04-29T01:58:33.091Z,151154.28
2023-04-29T02:01:01.044Z,151167.28
2023-04-29T02:03:29.173Z,151154.28
2023-04-29T02:05:57.926Z,151145.22
2023-04-29T02:08:25.829Z,151146.50
2023-04-29T02:10:56.049Z,151159.44
2023-04-29T02:13:25.475Z,151160.78
2023-04-29T02:15:53.732Z,151152.97
2023-04-29T02:18:21.726Z,151151.69
2023-04-29T02:20:50.720Z,151152.97
2023-04-29T02:23:18.920Z,151162.09
2023-04-29T02:25:47.106Z,151177.63
2023-04-29T02:28:15.019Z,151172.44
2023-04-29T02:30:44.374Z,151146.50
2023-04-29T02:33:12.256Z,151142.63
2023-04-29T02:35:40.639Z,151141.31
2023-04-29T02:38:10.480Z,151136.19
2023-04-29T02:40:43.961Z,151136.19
2023-04-29T02:43:13.289Z,151147.81
2023-04-29T02:45:41.480Z,151131.03
2023-04-29T02:48:10.649Z,151125.84
2023-04-29T02:50:43.305Z,151107.72
2023-04-29T02:53:21.049Z,151110.31
2023-04-29T02:55:50.048Z,151106.44
2023-04-29T02:58:19.242Z,151109.00
2023-04-29T03:00:47.677Z,151092.19
2023-04-29T03:03:17.344Z,151084.41
2023-04-29T03:05:45.531Z,151056.00
2023-04-29T03:08:13.480Z,151053.41
2023-04-29T03:10:41.896Z,151068.94
2023-04-29T03:13:09.855Z,151043.06
2023-04-29T03:15:38.563Z,151056.00
2023-04-29T03:18:06.667Z,151030.09
2023-04-29T03:20:36.005Z,151037.88
2023-04-29T03:23:03.951Z,151039.16
2023-04-29T03:25:32.073Z,151032.69
2023-04-29T03:28:00.030Z,151023.69
2023-04-29T03:30:28.011Z,151024.97
2023-04-29T03:32:56.104Z,151019.81
2023-04-29T03:35:24.100Z,151014.63
2023-04-29T03:37:53.585Z,151021.09
2023-04-29T03:40:21.620Z,151026.28
2023-04-29T03:42:49.508Z,151028.81
2023-04-29T03:45:17.752Z,151027.53
2023-04-29T03:47:45.632Z,151040.47
2023-04-29T03:50:14.602Z,151040.47
2023-04-29T03:52:42.762Z,151035.28
2023-04-29T03:55:12.759Z,151034.00
2023-04-29T03:57:42.600Z,151030.09
2023-04-29T04:00:11.653Z,151035.28
2023-04-29T04:02:39.858Z,151035.28
2023-04-29T04:05:08.475Z,151027.53
2023-04-29T04:07:36.359Z,151043.06
2023-04-29T04:10:04.631Z,151048.22
2023-04-29T04:12:35.365Z,151061.19
2023-04-29T04:15:05.331Z,151056.00
2023-04-29T04:17:35.762Z,151045.63
2023-04-29T04:20:06.469Z,151058.59
2023-04-29T04:22:35.689Z,151061.19
2023-04-29T04:25:04.686Z,151058.59
2023-04-29T04:27:33.935Z,151080.59
2023-04-29T04:30:02.200Z,151067.63
2023-04-29T04:32:30.551Z,151071.53
2023-04-29T04:34:58.575Z,151075.41
2023-04-29T04:37:26.641Z,151080.59
2023-04-29T04:39:55.310Z,151083.13
2023-04-29T04:42:24.147Z,151076.69
2023-04-29T04:44:56.169Z,151068.94
2023-04-29T04:47:29.139Z,151090.91
2023-04-29T04:50:00.215Z,151089.59
2023-04-29T04:52:28.446Z,151097.38
2023-04-29T04:54:58.735Z,151105.13
2023-04-29T04:57:26.811Z,151101.25
2023-04-29T04:59:58.768Z,151110.31
2023-04-29T05:02:26.864Z,151111.59
2023-04-29T05:04:55.043Z,151115.47
2023-04-29T05:07:23.127Z,151109.00
2023-04-29T05:09:51.800Z,151132.31
2023-04-29T05:12:21.877Z,151136.19
2023-04-29T05:14:53.785Z,151123.25
2023-04-29T05:17:24.573Z,151133.59
2023-04-29T05:19:52.913Z,151138.75
2023-04-29T05:22:21.175Z,151143.91
2023-04-29T05:24:49.334Z,151150.38
2023-04-29T05:27:17.295Z,151156.88
2023-04-29T05:29:45.604Z,151187.97
2023-04-29T05:32:13.647Z,151164.69
2023-04-29T05:34:44.599Z,151171.16
2023-04-29T05:37:13.511Z,151172.44
2023-04-29T05:39:41.541Z,151194.41
2023-04-29T05:42:09.527Z,151185.41
2023-04-29T05:44:40.354Z,151176.34
2023-04-29T05:47:11.718Z,151211.25
2023-04-29T05:49:41.938Z,151215.13
2023-04-29T05:52:09.843Z,151221.59
2023-04-29T05:54:37.643Z,151234.56
2023-04-29T05:57:06.693Z,151234.56
2023-04-29T05:59:35.068Z,151244.91
2023-04-29T06:02:03.461Z,151294.09
2023-04-29T06:04:31.821Z,151282.41
2023-04-29T06:07:03.403Z,151292.78
2023-04-29T06:09:31.566Z,151291.50
2023-04-29T06:11:59.517Z,151327.72
2023-04-29T06:14:27.364Z,151347.16
2023-04-29T06:16:55.382Z,151387.25
2023-04-29T06:19:23.418Z,151436.44
2023-04-29T06:21:51.607Z,151470.09
2023-04-29T06:24:21.122Z,151519.34
2023-04-29T06:26:49.406Z,151515.44
2023-04-29T06:29:18.672Z,151555.59
2023-04-29T06:31:47.795Z,151572.44
2023-04-29T06:34:15.837Z,151584.06
2023-04-29T06:36:43.685Z,151580.16
2023-04-29T06:39:12.707Z,151604.78
2023-04-29T06:41:42.079Z,151602.22
2023-04-29T06:44:12.132Z,151569.84
2023-04-29T06:46:41.357Z,151626.84
2023-04-29T06:49:09.672Z,151690.34
2023-04-29T06:51:39.131Z,151884.78
2023-04-29T06:54:07.678Z,152089.75
2023-04-29T06:56:35.938Z,152181.91
2023-04-29T06:59:05.553Z,152446.78
2023-04-29T07:01:33.483Z,152249.34
2023-04-29T07:04:04.762Z,152253.25
2023-04-29T07:06:32.833Z,152266.25
2023-04-29T07:09:28.653Z,152280.53
2023-04-29T07:11:56.660Z,152474.03
2023-04-29T07:14:40.776Z,152635.13
2023-04-29T07:17:14.024Z,152359.69
2023-04-29T07:19:43.374Z,152354.50
2023-04-29T07:22:12.283Z,152248.06
2023-04-29T07:24:41.648Z,146839.22
2023-04-29T07:27:09.627Z,125152.22
2023-04-29T07:29:41.741Z,108716.94
2023-04-29T07:32:09.603Z,79116.47
2023-04-29T07:34:37.537Z,43921.88
2023-04-29T07:37:05.857Z,27097.53
2023-04-29T07:39:35.507Z,13283.59
2023-04-29T07:42:06.596Z,-10633.84
2023-04-29T07:44:35.574Z,-18852.41
2023-04-29T07:47:04.789Z,-19221.84
2023-04-29T07:49:32.988Z,-20226.09
2023-04-29T07:52:02.359Z,-20210.34
2023-04-29T07:54:31.447Z,-20195.13
2023-04-29T07:56:59.484Z,-20189.69
2023-04-29T07:59:27.591Z,-20201.00
2023-04-29T08:01:55.681Z,-20221.66
2023-04-29T08:04:41.109Z,-20222.63
2023-04-29T08:07:12.300Z,-20239.50
2023-04-29T08:09:41.354Z,-20229.31
2023-04-29T08:12:10.125Z,-20241.88
2023-04-29T08:14:37.925Z,-20237.13
2023-04-29T08:17:05.937Z,-20237.81
2023-04-29T08:19:35.914Z,-20262.34
2023-04-29T08:22:05.247Z,-20271.53
2023-04-29T08:24:37.931Z,-20280.03
2023-04-29T08:27:06.005Z,-20214.81
2023-04-29T08:29:34.464Z,-20227.38
2023-04-29T08:32:02.644Z,-20236.28
2023-04-29T08:34:30.629Z,-20234.63
2023-04-29T08:37:00.238Z,-20217.19
2023-04-29T08:39:29.834Z,-20205.47
2023-04-29T08:41:58.134Z,-20201.00
2023-04-29T08:44:27.298Z,-20207.97
2023-04-29T08:46:56.514Z,-20212.16
2023-04-29T08:49:24.660Z,-20236.72
2023-04-29T08:51:52.973Z,-20257.19
2023-04-29T08:54:25.184Z,-20232.66
2023-04-29T08:56:54.531Z,-20219.56
2023-04-29T08:59:26.150Z,-20241.44
2023-04-29T09:01:55.044Z,-20257.63
2023-04-29T09:04:33.192Z,-20278.50
2023-04-29T09:07:01.716Z,-20278.22
2023-04-29T09:09:33.000Z,-20255.13
2023-04-29T09:12:01.055Z,-20259.00
2023-04-29T09:14:33.496Z,-20291.72
2023-04-29T09:17:03.860Z,-20280.19
2023-04-29T09:19:34.635Z,-20296.75
2023-04-29T09:22:03.491Z,-20293.25
2023-04-29T09:24:33.267Z,-20297.72
2023-04-29T09:27:01.712Z,-20300.78
2023-04-29T09:29:32.917Z,-17333.72
2023-04-29T09:32:01.047Z,-20257.06
2023-04-29T09:34:33.795Z,-20250.94
2023-04-29T09:37:01.786Z,-20243.69
2023-04-29T09:39:43.022Z,-20257.06
2023-04-29T09:42:11.193Z,-20262.63
2023-04-29T09:44:43.698Z,-20271.25
2023-04-29T09:47:13.556Z,-20284.50
2023-04-29T09:49:45.502Z,-20276.28
2023-04-29T09:52:26.223Z,-20288.41
2023-04-29T09:55:07.144Z,-20258.19
2023-04-29T09:57:44.372Z,-20260.00
2023-04-29T10:00:14.736Z,-20295.75
2023-04-29T10:02:43.807Z,-15649.41
2023-04-29T10:05:13.404Z,-8370.28
2023-04-29T10:07:43.412Z,-19944.81
2023-04-29T10:10:15.560Z,-16623.09
2023-04-29T10:12:44.781Z,-9034.69
2023-04-29T10:15:21.916Z,616.47
2023-04-29T10:17:54.145Z,7282.41
2023-04-29T10:20:24.522Z,-5378.28
2023-04-29T10:22:56.740Z,-5383.16
2023-04-29T10:25:31.027Z,-8049.56
2023-04-29T10:28:11.183Z,-3717.88
2023-04-29T10:30:41.435Z,19687.31
2023-04-29T10:33:13.100Z,14004.75
2023-04-29T10:35:43.598Z,16992.19
2023-04-29T10:38:21.718Z,1612.22
2023-04-29T10:40:54.917Z,56134.78
2023-04-29T10:43:31.982Z,46670.50
2023-04-29T10:46:19.582Z,42549.16
2023-04-29T10:48:48.291Z,25370.16
2023-04-29T10:51:34.150Z,21321.47
2023-04-29T10:54:04.350Z,46959.31
2023-04-29T10:56:45.203Z,63586.16
2023-04-29T10:59:15.175Z,110219.53
2023-04-29T11:01:46.461Z,129323.06
2023-04-29T11:04:15.064Z,64320.31
2023-04-29T11:06:47.674Z,65896.03
2023-04-29T11:09:20.968Z,61921.19
2023-04-29T11:11:59.254Z,136432.09
2023-04-29T11:14:28.889Z,154223.38
2023-04-29T11:16:59.995Z,153859.22
2023-04-29T11:19:32.666Z,154133.28
2023-04-29T11:22:15.607Z,154053.69
2023-04-29T11:24:56.108Z,154002.75
2023-04-29T11:27:28.208Z,153809.66
2023-04-29T11:29:59.288Z,153899.69
2023-04-29T11:32:31.162Z,153927.06
2023-04-29T11:35:11.826Z,153681.88
2023-04-29T11:37:47.990Z,153842.31
2023-04-29T11:40:28.655Z,153901.00
2023-04-29T11:43:18.183Z,153971.41
2023-04-29T11:45:46.583Z,154120.25
2023-04-29T11:48:20.092Z,153885.34
2023-04-29T11:50:51.316Z,154209.00
2023-04-29T11:53:22.168Z,154219.47
2023-04-29T11:55:50.114Z,154151.56
2023-04-29T11:58:21.491Z,153606.25
2023-04-29T12:00:50.125Z,154043.25
2023-04-29T12:03:20.096Z,154099.34
2023-04-29T12:05:49.513Z,153737.94
2023-04-29T12:08:21.107Z,153705.31
2023-04-29T12:10:49.315Z,153897.09
2023-04-29T12:13:19.867Z,153950.56
2023-04-29T12:15:49.048Z,154154.19
2023-04-29T12:18:19.582Z,154023.66
2023-04-29T12:20:48.215Z,154147.66
2023-04-29T12:23:18.915Z,153970.09
2023-04-29T12:25:51.426Z,153792.75
2023-04-29T12:28:21.878Z,154167.25
2023-04-29T12:30:51.393Z,154039.31
2023-04-29T12:33:23.768Z,154148.94
2023-04-29T12:35:54.486Z,154039.31
2023-04-29T12:38:27.027Z,154083.69
2023-04-29T12:40:55.454Z,154091.53
2023-04-29T12:43:29.170Z,154068.06
2023-04-29T12:46:03.102Z,154150.25
2023-04-29T12:48:33.612Z,153873.59
2023-04-29T12:51:02.918Z,153934.91
2023-04-29T12:53:32.719Z,153893.16
2023-04-29T12:56:00.988Z,153971.41
2023-04-29T12:58:32.765Z,153812.28
2023-04-29T13:01:01.753Z,153937.50
2023-04-29T13:03:30.233Z,153958.41
2023-04-29T13:05:59.370Z,153895.78
2023-04-29T13:08:27.579Z,154047.16
2023-04-29T13:10:59.496Z,153897.09
2023-04-29T13:13:27.643Z,154231.22
2023-04-29T13:15:57.349Z,154228.59
2023-04-29T13:18:28.175Z,154210.31
2023-04-29T13:20:56.628Z,154146.34
2023-04-29T13:23:24.558Z,153869.66
2023-04-29T13:25:53.606Z,154108.50
2023-04-29T13:28:23.596Z,154061.53
2023-04-29T13:30:52.375Z,154041.94
2023-04-29T13:33:21.679Z,154131.97
2023-04-29T13:35:49.777Z,154271.72
2023-04-29T13:38:18.760Z,154060.22
2023-04-29T13:40:47.305Z,154117.66
2023-04-29T13:43:29.253Z,154254.75
2023-04-29T13:46:07.532Z,154018.44
2023-04-29T13:54:33.674Z,154248.22
2023-04-29T13:57:26.640Z,154415.38
2023-04-29T14:04:23.484Z,154159.41
2023-04-29T14:06:51.652Z,154189.41
2023-04-29T14:09:22.350Z,154173.78
2023-04-29T14:11:51.208Z,154104.59
2023-04-29T14:14:20.051Z,153934.91
2023-04-29T14:16:48.042Z,153769.22
2023-04-29T14:19:17.033Z,154086.28
2023-04-29T14:21:46.347Z,153899.69
2023-04-29T14:24:14.367Z,154199.84
2023-04-29T14:26:43.240Z,154018.44
2023-04-29T14:29:12.226Z,153787.47
2023-04-29T14:31:40.714Z,153732.72
2023-04-29T14:34:11.059Z,153835.78
2023-04-29T14:36:39.115Z,153727.50
2023-04-29T14:39:12.526Z,153089.91
2023-04-29T14:41:40.573Z,153891.00
2023-04-29T14:44:08.980Z,154120.25
2023-04-29T14:46:36.910Z,153961.00
2023-04-29T14:49:06.267Z,142213.88
2023-04-29T14:51:34.329Z,86797.84
2023-04-29T14:54:02.378Z,123004.84
2023-04-29T14:56:32.484Z,87384.00
2023-04-29T14:59:00.729Z,64569.34
2023-04-29T15:01:31.284Z,42166.31
2023-04-29T15:04:01.368Z,23647.69
2023-04-29T15:06:29.826Z,13618.19
2023-04-29T15:08:57.684Z,16295.13
2023-04-29T15:11:26.145Z,23353.72
2023-04-29T15:13:56.482Z,35790.84
2023-04-29T15:16:24.568Z,16961.63
2023-04-29T15:18:52.697Z,-8025.38
2023-04-29T15:21:21.228Z,-13313.41
2023-04-29T15:23:49.246Z,-20235.03
2023-04-29T15:26:17.148Z,-20209.09
2023-04-29T15:28:46.769Z,-20212.03
2023-04-29T15:31:16.316Z,-20245.78
2023-04-29T15:33:44.671Z,-16616.94
2023-04-29T15:36:13.494Z,-20216.63
2023-04-29T15:38:41.569Z,-18614.34
2023-04-29T15:41:09.652Z,6599.94
2023-04-29T15:43:40.239Z,13261.75
2023-04-29T15:46:08.815Z,2923.50
2023-04-29T15:48:39.322Z,-393.00
2023-04-29T15:51:09.945Z,18288.63
2023-04-29T15:53:39.912Z,35114.16
2023-04-29T15:56:16.483Z,9931.66
2023-04-29T15:58:50.607Z,16947.03
2023-04-29T16:01:29.810Z,20290.25
2023-04-29T16:04:13.393Z,-13636.34
2023-04-29T16:06:47.617Z,-20238.09
2023-04-29T16:09:15.952Z,-16930.19
2023-04-29T16:12:00.671Z,-19604.25
2023-04-29T16:14:31.443Z,-4047.19
2023-04-29T16:17:11.703Z,-15615.28
2023-04-29T16:19:41.072Z,-20204.34
2023-04-29T16:22:09.051Z,-20194.00
2023-04-29T16:24:36.974Z,-20189.25
2023-04-29T16:27:05.118Z,-20191.78
2023-04-29T16:29:33.089Z,-20182.28
2023-04-29T16:32:00.927Z,-20175.97
2023-04-29T16:34:29.046Z,-20184.50
2023-04-29T16:37:02.088Z,-20184.38
2023-04-29T16:39:30.476Z,-20175.84
2023-04-29T16:42:00.659Z,-20176.13
2023-04-29T16:44:28.789Z,-20174.72
2023-04-29T16:46:56.869Z,-20167.72
2023-04-29T16:49:26.465Z,-20164.38
2023-04-29T16:51:55.360Z,-20168.56
2023-04-29T16:54:25.860Z,-20165.22
2023-04-29T16:56:53.746Z,-20157.09
2023-04-29T16:59:21.674Z,-20154.88
2023-04-29T17:01:51.020Z,-20151.50
2023-04-29T17:04:20.099Z,-20147.31
2023-04-29T17:06:57.210Z,-20143.41
2023-04-29T17:09:28.800Z,-20147.31
2023-04-29T17:11:58.063Z,-20149.84
2023-04-29T17:14:26.362Z,-20139.75
2023-04-29T17:16:54.474Z,-20140.31
2023-04-29T17:19:22.953Z,-20134.31
2023-04-29T17:21:51.020Z,-20135.84
2023-04-29T17:24:19.236Z,-20133.03
2023-04-29T17:26:48.572Z,-20129.81
2023-04-29T17:29:16.647Z,-20128.84
2023-04-29T17:31:54.354Z,-20128.84
2023-04-29T17:34:25.743Z,-20126.75
2023-04-29T17:36:54.740Z,-20130.66
2023-04-29T17:39:23.065Z,-20134.44
2023-04-29T17:41:52.369Z,-20135.69
2023-04-29T17:44:22.586Z,-20135.69
2023-04-29T17:46:51.169Z,-20134.31
2023-04-29T17:49:20.194Z,-20137.78
2023-04-29T17:51:48.194Z,-20131.63
2023-04-29T17:54:16.897Z,-20127.72
2023-04-29T17:56:45.016Z,-20123.38
2023-04-29T17:59:14.454Z,-20130.53
2023-04-29T18:01:42.929Z,-20127.59
2023-04-29T18:04:11.063Z,-20121.56
2023-04-29T18:06:40.642Z,-20119.03
2023-04-29T18:09:09.905Z,-20119.19
2023-04-29T18:11:38.006Z,-16200.53
2023-04-29T18:14:06.205Z,-8335.81
2023-04-29T18:16:36.050Z,8717.91
2023-04-29T18:19:04.674Z,41019.91
2023-04-29T18:21:36.284Z,85611.78
2023-04-29T18:24:09.548Z,104207.03
2023-04-29T18:26:37.931Z,119873.50
2023-04-29T18:29:06.567Z,127377.50
2023-04-29T18:31:36.481Z,132477.78
2023-04-29T18:34:04.875Z,137623.22
2023-04-29T18:36:34.090Z,139985.69
2023-04-29T18:39:02.208Z,143088.25
2023-04-29T18:41:30.746Z,143747.59
2023-04-29T18:43:58.881Z,144762.28
2023-04-29T18:46:29.696Z,145430.19
2023-04-29T18:48:59.158Z,146107.97
2023-04-29T18:51:28.065Z,146411.25
2023-04-29T18:53:56.229Z,147399.50
2023-04-29T18:56:24.191Z,148743.38
2023-04-29T18:58:52.208Z,150793.38
2023-04-29T19:01:20.301Z,150749.56
2023-04-29T19:03:49.281Z,151436.34
2023-04-29T19:06:18.810Z,151452.00
2023-04-29T19:08:46.914Z,151452.00
2023-04-29T19:11:14.929Z,151446.81
2023-04-29T19:13:43.190Z,151462.34
2023-04-29T19:16:11.291Z,151468.78
2023-04-29T19:18:39.297Z,151467.53
2023-04-29T19:21:08.513Z,151459.78
2023-04-29T19:23:37.892Z,151440.34
2023-04-29T19:26:05.913Z,151410.56
2023-04-29T19:28:33.945Z,151396.31
2023-04-29T19:31:04.452Z,151391.13
2023-04-29T19:33:32.812Z,151398.91
2023-04-29T19:36:02.419Z,151392.44
2023-04-29T19:38:30.572Z,151404.09
2023-04-29T19:40:59.960Z,151397.63
2023-04-29T19:43:28.004Z,151420.88
2023-04-29T19:45:56.585Z,151433.84
2023-04-29T19:48:25.007Z,151450.69
2023-04-29T19:50:54.071Z,151452.00
2023-04-29T19:53:22.433Z,151384.66
2023-04-29T19:55:51.778Z,151370.41
2023-04-29T19:58:22.119Z,151348.44
2023-04-29T20:00:50.960Z,151326.41
2023-04-29T20:03:20.870Z,151335.47
2023-04-29T20:05:49.380Z,151306.97
2023-04-29T20:08:20.491Z,151339.38
2023-04-29T20:10:51.492Z,151358.75
2023-04-29T20:13:22.728Z,151358.75
2023-04-29T20:15:50.819Z,151376.88
2023-04-29T20:18:19.866Z,151376.88
2023-04-29T20:20:48.986Z,151393.72
2023-04-29T20:23:18.557Z,151376.88
2023-04-29T20:25:58.376Z,151325.13
2023-04-29T20:28:38.323Z,151338.06
2023-04-29T20:31:06.698Z,151282.41
2023-04-29T20:33:43.559Z,151222.91
2023-04-29T20:36:19.488Z,151312.16
2023-04-29T20:39:06.956Z,151185.41
2023-04-29T20:41:41.150Z,151111.59
2023-04-29T20:44:16.430Z,151061.19
2023-04-29T20:46:46.100Z,151009.44
2023-04-29T20:49:13.923Z,151001.69
2023-04-29T20:51:43.570Z,150964.22
2023-04-29T20:54:11.531Z,150973.22
2023-04-29T20:56:39.597Z,150895.69
2023-04-29T20:59:07.692Z,150846.59
2023-04-29T21:01:40.224Z,150831.09
2023-04-29T21:04:09.500Z,150760.00
2023-04-29T21:06:38.072Z,150712.22
2023-04-29T21:09:09.008Z,150645.06
2023-04-29T21:11:38.184Z,150657.97
2023-04-29T21:14:07.819Z,150610.22
2023-04-29T21:16:38.402Z,150583.13
2023-04-29T21:19:06.510Z,150568.91
2023-04-29T21:21:34.344Z,150540.47
2023-04-29T21:24:02.419Z,150553.41
2023-04-29T21:26:30.393Z,150565.03
2023-04-29T21:28:58.376Z,150657.97
2023-04-29T21:31:26.334Z,150663.16
2023-04-29T21:33:55.794Z,150673.50
2023-04-29T21:36:24.281Z,150606.34
2023-04-29T21:38:52.877Z,150533.97
2023-04-29T21:41:29.531Z,150544.38
2023-04-29T21:43:59.825Z,150575.38
2023-04-29T21:46:30.558Z,150593.41
2023-04-29T21:49:00.675Z,150562.44
2023-04-29T21:51:29.494Z,150521.09
2023-04-29T21:53:57.693Z,150563.75
2023-04-29T21:56:25.762Z,150531.38
2023-04-29T21:58:56.879Z,150515.94
2023-04-29T22:01:40.059Z,150546.94
2023-04-29T22:04:09.566Z,150518.53
2023-04-29T22:06:37.812Z,150444.94
2023-04-29T22:09:06.714Z,150425.56
2023-04-29T22:11:34.937Z,150381.72
2023-04-29T22:14:03.407Z,150313.31
2023-04-29T22:16:31.597Z,150343.03
2023-04-29T22:18:59.824Z,150245.00
2023-04-29T22:21:29.445Z,150242.44
2023-04-29T22:23:57.945Z,150167.63
2023-04-29T22:26:28.665Z,150245.00
2023-04-29T22:28:56.989Z,150268.19
2023-04-29T22:31:25.257Z,150245.00
2023-04-29T22:33:53.410Z,150275.94
2023-04-29T22:36:22.055Z,150332.69
2023-04-29T22:38:52.009Z,150207.59
2023-04-29T22:41:20.480Z,150234.69
2023-04-29T22:43:48.520Z,150335.28
2023-04-29T22:46:18.148Z,150340.44
2023-04-29T22:48:46.409Z,150270.78
2023-04-29T22:51:14.468Z,150170.22
2023-04-29T22:53:42.964Z,150083.88
2023-04-29T22:56:13.500Z,150098.00
2023-04-29T22:58:41.551Z,150073.53
2023-04-29T23:01:14.755Z,149997.50
2023-04-29T23:03:43.737Z,150054.19
2023-04-29T23:06:11.883Z,150108.31
2023-04-29T23:08:44.366Z,150157.31
2023-04-29T23:11:13.934Z,150063.22
2023-04-29T23:13:41.876Z,150012.97
2023-04-29T23:16:10.959Z,150063.22
2023-04-29T23:18:40.224Z,150146.97
2023-04-29T23:21:08.999Z,150180.53
2023-04-29T23:23:40.680Z,150063.22
2023-04-29T23:26:09.252Z,150040.00
2023-04-29T23:28:40.438Z,149973.06
2023-04-29T23:31:10.691Z,149933.06
2023-04-29T23:33:39.332Z,149966.59
2023-04-29T23:36:07.691Z,149988.47
2023-04-29T23:38:35.799Z,149917.66
2023-04-29T23:41:04.124Z,149880.25
2023-04-29T23:43:32.211Z,149940.81
2023-04-29T23:46:03.054Z,149899.59
2023-04-29T23:48:31.136Z,149885.44
2023-04-29T23:50:59.560Z,149867.44
2023-04-29T23:53:27.593Z,149867.44
2023-04-29T23:55:55.776Z,149810.75
2023-04-29T23:58:23.822Z,149768.25
